sensor_id;sensor_type;location;lat;lon;timestamp;temperature;humidity
60473;DHT22;46318;52.716;6.444;2023-03-14T00:00:14;10.30;99.90
60473;DHT22;46318;52.716;6.444;2023-03-14T00:02:41;10.30;99.90
60473;DHT22;46318;52.716;6.444;2023-03-14T00:05:07;10.30;99.90
60473;DHT22;46318;52.716;6.444;2023-03-14T00:07:36;10.40;99.90
60473;DHT22;46318;52.716;6.444;2023-03-14T00:10:05;10.30;99.90
60473;DHT22;46318;52.716;6.444;2023-03-14T00:12:32;10.30;99.90
60473;DHT22;46318;52.716;6.444;2023-03-14T00:14:58;10.30;99.90
60473;DHT22;46318;52.716;6.444;2023-03-14T00:17:26;10.30;99.90
60473;DHT22;46318;52.716;6.444;2023-03-14T00:19:52;10.30;99.90
60473;DHT22;46318;52.716;6.444;2023-03-14T00:22:19;10.30;99.90
60473;DHT22;46318;52.716;6.444;2023-03-14T00:24:45;10.30;99.90
60473;DHT22;46318;52.716;6.444;2023-03-14T00:27:11;10.30;99.90
60473;DHT22;46318;52.716;6.444;2023-03-14T00:29:37;10.30;99.90
60473;DHT22;46318;52.716;6.444;2023-03-14T00:32:03;10.30;99.90
60473;DHT22;46318;52.716;6.444;2023-03-14T00:34:30;10.40;99.90
60473;DHT22;46318;52.716;6.444;2023-03-14T00:36:57;10.40;99.90
60473;DHT22;46318;52.716;6.444;2023-03-14T00:39:23;10.40;99.90
60473;DHT22;46318;52.716;6.444;2023-03-14T00:41:49;10.40;99.90
60473;DHT22;46318;52.716;6.444;2023-03-14T00:44:15;10.40;99.90
60473;DHT22;46318;52.716;6.444;2023-03-14T00:46:40;10.40;99.90
60473;DHT22;46318;52.716;6.444;2023-03-14T00:49:06;10.40;99.90
60473;DHT22;46318;52.716;6.444;2023-03-14T00:51:32;10.40;99.90
60473;DHT22;46318;52.716;6.444;2023-03-14T00:53:59;10.40;99.90
60473;DHT22;46318;52.716;6.444;2023-03-14T00:56:26;10.40;99.90
60473;DHT22;46318;52.716;6.444;2023-03-14T00:58:55;10.40;99.90
60473;DHT22;46318;52.716;6.444;2023-03-14T01:01:21;10.40;99.90
60473;DHT22;46318;52.716;6.444;2023-03-14T01:03:51;10.30;99.90
60473;DHT22;46318;52.716;6.444;2023-03-14T01:06:21;10.30;99.90
60473;DHT22;46318;52.716;6.444;2023-03-14T01:08:48;10.30;99.90
60473;DHT22;46318;52.716;6.444;2023-03-14T01:11:23;10.30;99.90
60473;DHT22;46318;52.716;6.444;2023-03-14T01:13:51;10.30;99.90
60473;DHT22;46318;52.716;6.444;2023-03-14T01:16:19;10.30;99.90
60473;DHT22;46318;52.716;6.444;2023-03-14T01:18:47;10.30;99.90
60473;DHT22;46318;52.716;6.444;2023-03-14T01:23:48;10.30;99.90
60473;DHT22;46318;52.716;6.444;2023-03-14T01:26:17;10.30;99.90
60473;DHT22;46318;52.716;6.444;2023-03-14T01:28:45;10.30;99.90
60473;DHT22;46318;52.716;6.444;2023-03-14T01:31:11;10.30;99.90
60473;DHT22;46318;52.716;6.444;2023-03-14T01:33:38;10.30;99.90
60473;DHT22;46318;52.716;6.444;2023-03-14T01:36:05;10.30;99.90
60473;DHT22;46318;52.716;6.444;2023-03-14T01:38:33;10.30;99.90
60473;DHT22;46318;52.716;6.444;2023-03-14T01:41:00;10.20;99.90
60473;DHT22;46318;52.716;6.444;2023-03-14T01:43:26;10.20;99.90
60473;DHT22;46318;52.716;6.444;2023-03-14T01:48:40;10.20;99.90
60473;DHT22;46318;52.716;6.444;2023-03-14T01:51:14;10.20;99.90
60473;DHT22;46318;52.716;6.444;2023-03-14T01:53:43;10.20;99.90
60473;DHT22;46318;52.716;6.444;2023-03-14T01:56:11;10.20;99.90
60473;DHT22;46318;52.716;6.444;2023-03-14T01:58:41;10.20;99.90
60473;DHT22;46318;52.716;6.444;2023-03-14T02:01:10;10.10;99.90
60473;DHT22;46318;52.716;6.444;2023-03-14T02:04:02;10.10;99.90
60473;DHT22;46318;52.716;6.444;2023-03-14T02:06:54;10.10;99.90
60473;DHT22;46318;52.716;6.444;2023-03-14T02:09:24;10.20;99.90
60473;DHT22;46318;52.716;6.444;2023-03-14T02:11:50;10.20;99.90
60473;DHT22;46318;52.716;6.444;2023-03-14T02:14:43;10.10;99.90
60473;DHT22;46318;52.716;6.444;2023-03-14T02:17:15;10.20;99.90
60473;DHT22;46318;52.716;6.444;2023-03-14T02:19:50;10.20;99.90
60473;DHT22;46318;52.716;6.444;2023-03-14T02:22:40;10.10;99.90
60473;DHT22;46318;52.716;6.444;2023-03-14T02:25:16;10.10;99.90
60473;DHT22;46318;52.716;6.444;2023-03-14T02:27:57;10.10;99.90
60473;DHT22;46318;52.716;6.444;2023-03-14T02:30:27;10.10;99.90
60473;DHT22;46318;52.716;6.444;2023-03-14T02:32:59;10.10;99.90
60473;DHT22;46318;52.716;6.444;2023-03-14T02:35:42;10.10;99.90
60473;DHT22;46318;52.716;6.444;2023-03-14T02:38:31;10.00;99.90
60473;DHT22;46318;52.716;6.444;2023-03-14T02:41:01;10.00;99.90
60473;DHT22;46318;52.716;6.444;2023-03-14T02:43:28;10.00;99.90
60473;DHT22;46318;52.716;6.444;2023-03-14T02:45:54;10.00;99.90
60473;DHT22;46318;52.716;6.444;2023-03-14T02:48:29;10.00;99.90
60473;DHT22;46318;52.716;6.444;2023-03-14T02:51:00;10.00;99.90
60473;DHT22;46318;52.716;6.444;2023-03-14T02:53:30;9.90;99.90
60473;DHT22;46318;52.716;6.444;2023-03-14T02:56:00;9.90;99.90
60473;DHT22;46318;52.716;6.444;2023-03-14T02:58:26;9.90;99.90
60473;DHT22;46318;52.716;6.444;2023-03-14T03:00:53;9.80;99.90
60473;DHT22;46318;52.716;6.444;2023-03-14T03:03:19;9.80;99.90
60473;DHT22;46318;52.716;6.444;2023-03-14T03:05:53;9.80;99.90
60473;DHT22;46318;52.716;6.444;2023-03-14T03:08:21;9.80;99.90
60473;DHT22;46318;52.716;6.444;2023-03-14T03:10:49;9.70;99.90
60473;DHT22;46318;52.716;6.444;2023-03-14T03:13:16;9.70;99.90
60473;DHT22;46318;52.716;6.444;2023-03-14T03:15:42;9.70;99.90
60473;DHT22;46318;52.716;6.444;2023-03-14T03:18:08;9.70;99.90
60473;DHT22;46318;52.716;6.444;2023-03-14T03:20:34;9.70;99.90
60473;DHT22;46318;52.716;6.444;2023-03-14T03:23:00;9.70;99.90
60473;DHT22;46318;52.716;6.444;2023-03-14T03:25:27;9.70;99.90
60473;DHT22;46318;52.716;6.444;2023-03-14T03:27:53;9.60;99.90
60473;DHT22;46318;52.716;6.444;2023-03-14T03:30:19;9.70;99.90
60473;DHT22;46318;52.716;6.444;2023-03-14T03:32:46;9.60;99.90
60473;DHT22;46318;52.716;6.444;2023-03-14T03:35:12;9.60;99.90
60473;DHT22;46318;52.716;6.444;2023-03-14T03:37:38;9.60;99.90
60473;DHT22;46318;52.716;6.444;2023-03-14T03:40:05;9.60;99.90
60473;DHT22;46318;52.716;6.444;2023-03-14T03:42:33;9.60;99.90
60473;DHT22;46318;52.716;6.444;2023-03-14T03:44:59;9.60;99.90
60473;DHT22;46318;52.716;6.444;2023-03-14T03:47:26;9.60;99.90
60473;DHT22;46318;52.716;6.444;2023-03-14T03:49:52;9.60;99.90
60473;DHT22;46318;52.716;6.444;2023-03-14T03:52:18;9.60;99.90
60473;DHT22;46318;52.716;6.444;2023-03-14T03:54:45;9.60;99.90
60473;DHT22;46318;52.716;6.444;2023-03-14T03:57:11;9.60;99.90
60473;DHT22;46318;52.716;6.444;2023-03-14T03:59:37;9.60;99.90
60473;DHT22;46318;52.716;6.444;2023-03-14T04:02:05;9.60;99.90
60473;DHT22;46318;52.716;6.444;2023-03-14T04:04:31;9.60;99.90
60473;DHT22;46318;52.716;6.444;2023-03-14T04:06:57;9.60;99.90
60473;DHT22;46318;52.716;6.444;2023-03-14T04:09:23;9.60;99.90
60473;DHT22;46318;52.716;6.444;2023-03-14T04:11:49;9.60;99.90
60473;DHT22;46318;52.716;6.444;2023-03-14T04:14:15;9.50;99.90
60473;DHT22;46318;52.716;6.444;2023-03-14T04:16:41;9.50;99.90
60473;DHT22;46318;52.716;6.444;2023-03-14T04:19:07;9.50;99.90
60473;DHT22;46318;52.716;6.444;2023-03-14T04:21:33;9.50;99.90
60473;DHT22;46318;52.716;6.444;2023-03-14T04:23:59;9.50;99.90
60473;DHT22;46318;52.716;6.444;2023-03-14T04:26:25;9.50;99.90
60473;DHT22;46318;52.716;6.444;2023-03-14T04:28:50;9.50;99.90
60473;DHT22;46318;52.716;6.444;2023-03-14T04:31:21;9.50;99.90
60473;DHT22;46318;52.716;6.444;2023-03-14T04:33:47;9.50;99.90
60473;DHT22;46318;52.716;6.444;2023-03-14T04:36:14;9.50;99.90
60473;DHT22;46318;52.716;6.444;2023-03-14T04:38:40;9.50;99.90
60473;DHT22;46318;52.716;6.444;2023-03-14T04:41:06;9.50;99.90
60473;DHT22;46318;52.716;6.444;2023-03-14T04:43:32;9.50;99.90
60473;DHT22;46318;52.716;6.444;2023-03-14T04:45:59;9.40;99.90
60473;DHT22;46318;52.716;6.444;2023-03-14T04:48:25;9.40;99.90
60473;DHT22;46318;52.716;6.444;2023-03-14T04:50:51;9.50;99.90
60473;DHT22;46318;52.716;6.444;2023-03-14T04:53:18;9.50;99.90
60473;DHT22;46318;52.716;6.444;2023-03-14T04:55:52;9.50;99.90
60473;DHT22;46318;52.716;6.444;2023-03-14T04:58:20;9.50;99.90
60473;DHT22;46318;52.716;6.444;2023-03-14T05:00:46;9.50;99.90
60473;DHT22;46318;52.716;6.444;2023-03-14T05:03:15;9.50;99.90
60473;DHT22;46318;52.716;6.444;2023-03-14T05:05:41;9.40;99.90
60473;DHT22;46318;52.716;6.444;2023-03-14T05:08:08;9.50;99.90
60473;DHT22;46318;52.716;6.444;2023-03-14T05:10:33;9.50;99.90
60473;DHT22;46318;52.716;6.444;2023-03-14T05:12:59;9.50;99.90
60473;DHT22;46318;52.716;6.444;2023-03-14T05:15:25;9.50;99.90
60473;DHT22;46318;52.716;6.444;2023-03-14T05:17:51;9.50;99.90
60473;DHT22;46318;52.716;6.444;2023-03-14T05:20:17;9.50;99.90
60473;DHT22;46318;52.716;6.444;2023-03-14T05:22:43;9.50;99.90
60473;DHT22;46318;52.716;6.444;2023-03-14T05:25:09;9.50;99.90
60473;DHT22;46318;52.716;6.444;2023-03-14T05:27:35;9.50;99.90
60473;DHT22;46318;52.716;6.444;2023-03-14T05:30:03;9.50;99.90
60473;DHT22;46318;52.716;6.444;2023-03-14T05:32:30;9.40;99.90
60473;DHT22;46318;52.716;6.444;2023-03-14T05:34:56;9.40;99.90
60473;DHT22;46318;52.716;6.444;2023-03-14T05:37:25;9.40;99.90
60473;DHT22;46318;52.716;6.444;2023-03-14T05:39:51;9.40;99.90
60473;DHT22;46318;52.716;6.444;2023-03-14T05:42:17;9.40;99.90
60473;DHT22;46318;52.716;6.444;2023-03-14T05:44:43;9.40;99.90
60473;DHT22;46318;52.716;6.444;2023-03-14T05:47:09;9.40;99.90
60473;DHT22;46318;52.716;6.444;2023-03-14T05:49:35;9.30;99.90
60473;DHT22;46318;52.716;6.444;2023-03-14T05:52:01;9.30;99.90
60473;DHT22;46318;52.716;6.444;2023-03-14T05:54:27;9.30;99.90
60473;DHT22;46318;52.716;6.444;2023-03-14T05:56:53;9.30;99.90
60473;DHT22;46318;52.716;6.444;2023-03-14T05:59:19;9.30;99.90
60473;DHT22;46318;52.716;6.444;2023-03-14T06:01:44;9.30;99.90
60473;DHT22;46318;52.716;6.444;2023-03-14T06:04:10;9.30;99.90
60473;DHT22;46318;52.716;6.444;2023-03-14T06:06:36;9.30;99.90
60473;DHT22;46318;52.716;6.444;2023-03-14T06:09:02;9.30;99.90
60473;DHT22;46318;52.716;6.444;2023-03-14T06:11:28;9.30;99.90
60473;DHT22;46318;52.716;6.444;2023-03-14T06:13:54;9.30;99.90
60473;DHT22;46318;52.716;6.444;2023-03-14T06:16:20;9.30;99.90
60473;DHT22;46318;52.716;6.444;2023-03-14T06:18:45;9.30;99.90
60473;DHT22;46318;52.716;6.444;2023-03-14T06:21:15;9.20;99.90
60473;DHT22;46318;52.716;6.444;2023-03-14T06:23:41;9.20;99.90
60473;DHT22;46318;52.716;6.444;2023-03-14T06:26:07;9.20;99.90
60473;DHT22;46318;52.716;6.444;2023-03-14T06:28:32;9.20;99.90
60473;DHT22;46318;52.716;6.444;2023-03-14T06:30:59;9.20;99.90
60473;DHT22;46318;52.716;6.444;2023-03-14T06:33:25;9.20;99.90
60473;DHT22;46318;52.716;6.444;2023-03-14T06:35:51;9.20;99.90
60473;DHT22;46318;52.716;6.444;2023-03-14T06:38:17;9.20;99.90
60473;DHT22;46318;52.716;6.444;2023-03-14T06:40:43;9.20;99.90
60473;DHT22;46318;52.716;6.444;2023-03-14T06:43:09;9.20;99.90
60473;DHT22;46318;52.716;6.444;2023-03-14T06:45:35;9.20;99.90
60473;DHT22;46318;52.716;6.444;2023-03-14T06:48:01;9.20;99.90
60473;DHT22;46318;52.716;6.444;2023-03-14T06:50:27;9.20;99.90
60473;DHT22;46318;52.716;6.444;2023-03-14T06:52:53;9.20;99.90
60473;DHT22;46318;52.716;6.444;2023-03-14T06:55:19;9.20;99.90
60473;DHT22;46318;52.716;6.444;2023-03-14T06:57:46;9.20;99.90
60473;DHT22;46318;52.716;6.444;2023-03-14T07:00:12;9.20;99.90
60473;DHT22;46318;52.716;6.444;2023-03-14T07:02:39;9.30;99.90
60473;DHT22;46318;52.716;6.444;2023-03-14T07:05:06;9.20;99.90
60473;DHT22;46318;52.716;6.444;2023-03-14T07:07:32;9.20;99.90
60473;DHT22;46318;52.716;6.444;2023-03-14T07:09:58;9.20;99.90
60473;DHT22;46318;52.716;6.444;2023-03-14T07:12:24;9.20;99.90
60473;DHT22;46318;52.716;6.444;2023-03-14T07:14:49;9.20;99.90
60473;DHT22;46318;52.716;6.444;2023-03-14T07:17:15;9.20;99.90
60473;DHT22;46318;52.716;6.444;2023-03-14T07:19:41;9.10;99.90
60473;DHT22;46318;52.716;6.444;2023-03-14T07:22:07;9.10;99.90
60473;DHT22;46318;52.716;6.444;2023-03-14T07:24:33;9.00;99.90
60473;DHT22;46318;52.716;6.444;2023-03-14T07:26:59;9.00;99.90
60473;DHT22;46318;52.716;6.444;2023-03-14T07:29:25;9.00;99.90
60473;DHT22;46318;52.716;6.444;2023-03-14T07:31:50;8.90;99.90
60473;DHT22;46318;52.716;6.444;2023-03-14T07:34:16;8.90;99.90
60473;DHT22;46318;52.716;6.444;2023-03-14T07:36:42;8.80;99.90
60473;DHT22;46318;52.716;6.444;2023-03-14T07:39:11;8.80;99.90
60473;DHT22;46318;52.716;6.444;2023-03-14T07:41:38;8.70;99.90
60473;DHT22;46318;52.716;6.444;2023-03-14T07:44:04;8.60;99.90
60473;DHT22;46318;52.716;6.444;2023-03-14T07:46:30;8.50;99.90
60473;DHT22;46318;52.716;6.444;2023-03-14T07:48:56;8.50;99.90
60473;DHT22;46318;52.716;6.444;2023-03-14T07:51:22;8.30;99.90
60473;DHT22;46318;52.716;6.444;2023-03-14T07:53:48;8.20;99.90
60473;DHT22;46318;52.716;6.444;2023-03-14T07:56:14;8.00;99.90
60473;DHT22;46318;52.716;6.444;2023-03-14T07:58:39;7.90;99.90
60473;DHT22;46318;52.716;6.444;2023-03-14T08:01:06;7.80;99.90
60473;DHT22;46318;52.716;6.444;2023-03-14T08:03:32;7.70;99.90
60473;DHT22;46318;52.716;6.444;2023-03-14T08:05:59;7.70;99.90
60473;DHT22;46318;52.716;6.444;2023-03-14T08:08:25;7.60;99.90
60473;DHT22;46318;52.716;6.444;2023-03-14T08:10:50;7.50;99.90
60473;DHT22;46318;52.716;6.444;2023-03-14T08:13:16;7.40;99.90
60473;DHT22;46318;52.716;6.444;2023-03-14T08:15:42;7.40;99.90
60473;DHT22;46318;52.716;6.444;2023-03-14T08:18:08;7.30;99.90
60473;DHT22;46318;52.716;6.444;2023-03-14T08:20:36;7.10;99.90
60473;DHT22;46318;52.716;6.444;2023-03-14T08:23:02;7.10;99.90
60473;DHT22;46318;52.716;6.444;2023-03-14T08:25:28;7.00;99.90
60473;DHT22;46318;52.716;6.444;2023-03-14T08:27:55;6.90;99.90
60473;DHT22;46318;52.716;6.444;2023-03-14T08:30:21;6.90;99.90
60473;DHT22;46318;52.716;6.444;2023-03-14T08:32:48;6.80;99.90
60473;DHT22;46318;52.716;6.444;2023-03-14T08:35:14;6.70;99.90
60473;DHT22;46318;52.716;6.444;2023-03-14T08:37:40;6.70;99.90
60473;DHT22;46318;52.716;6.444;2023-03-14T08:40:10;6.60;99.90
60473;DHT22;46318;52.716;6.444;2023-03-14T08:42:38;6.60;99.90
60473;DHT22;46318;52.716;6.444;2023-03-14T08:45:06;6.60;99.90
60473;DHT22;46318;52.716;6.444;2023-03-14T08:47:33;6.50;99.90
60473;DHT22;46318;52.716;6.444;2023-03-14T08:49:58;6.50;99.90
60473;DHT22;46318;52.716;6.444;2023-03-14T08:52:24;6.40;99.90
60473;DHT22;46318;52.716;6.444;2023-03-14T08:54:50;6.40;99.90
60473;DHT22;46318;52.716;6.444;2023-03-14T08:57:16;6.40;99.90
60473;DHT22;46318;52.716;6.444;2023-03-14T08:59:42;6.40;99.90
60473;DHT22;46318;52.716;6.444;2023-03-14T09:02:11;6.40;99.90
60473;DHT22;46318;52.716;6.444;2023-03-14T09:04:37;6.30;99.90
60473;DHT22;46318;52.716;6.444;2023-03-14T09:07:03;6.40;99.90
60473;DHT22;46318;52.716;6.444;2023-03-14T09:09:30;6.30;99.90
60473;DHT22;46318;52.716;6.444;2023-03-14T09:11:56;6.40;99.90
60473;DHT22;46318;52.716;6.444;2023-03-14T09:14:22;6.40;99.90
60473;DHT22;46318;52.716;6.444;2023-03-14T09:16:49;6.40;99.90
60473;DHT22;46318;52.716;6.444;2023-03-14T09:19:16;6.40;99.90
60473;DHT22;46318;52.716;6.444;2023-03-14T09:21:44;6.40;99.90
60473;DHT22;46318;52.716;6.444;2023-03-14T09:24:10;6.40;99.90
60473;DHT22;46318;52.716;6.444;2023-03-14T09:26:36;6.40;99.90
60473;DHT22;46318;52.716;6.444;2023-03-14T09:29:01;6.40;99.90
60473;DHT22;46318;52.716;6.444;2023-03-14T09:31:27;6.40;99.90
60473;DHT22;46318;52.716;6.444;2023-03-14T09:33:55;6.50;99.90
60473;DHT22;46318;52.716;6.444;2023-03-14T09:36:21;6.50;99.90
60473;DHT22;46318;52.716;6.444;2023-03-14T09:38:47;6.50;99.90
60473;DHT22;46318;52.716;6.444;2023-03-14T09:41:37;6.50;99.90
60473;DHT22;46318;52.716;6.444;2023-03-14T09:44:14;6.60;99.90
60473;DHT22;46318;52.716;6.444;2023-03-14T09:46:48;6.60;99.90
60473;DHT22;46318;52.716;6.444;2023-03-14T09:49:37;6.70;99.90
60473;DHT22;46318;52.716;6.444;2023-03-14T09:52:13;6.70;99.90
60473;DHT22;46318;52.716;6.444;2023-03-14T09:55:04;6.70;99.90
60473;DHT22;46318;52.716;6.444;2023-03-14T09:57:33;6.80;99.90
60473;DHT22;46318;52.716;6.444;2023-03-14T10:00:14;6.80;99.90
60473;DHT22;46318;52.716;6.444;2023-03-14T10:03:19;6.80;99.90
60473;DHT22;46318;52.716;6.444;2023-03-14T10:05:59;6.80;99.90
60473;DHT22;46318;52.716;6.444;2023-03-14T10:08:26;6.90;99.90
60473;DHT22;46318;52.716;6.444;2023-03-14T10:10:52;6.90;99.90
60473;DHT22;46318;52.716;6.444;2023-03-14T10:13:24;6.90;99.90
60473;DHT22;46318;52.716;6.444;2023-03-14T10:16:04;6.90;99.90
60473;DHT22;46318;52.716;6.444;2023-03-14T10:18:33;7.00;99.90
60473;DHT22;46318;52.716;6.444;2023-03-14T10:23:53;6.90;99.90
60473;DHT22;46318;52.716;6.444;2023-03-14T10:26:24;6.80;99.90
60473;DHT22;46318;52.716;6.444;2023-03-14T10:29:02;6.80;99.90
60473;DHT22;46318;52.716;6.444;2023-03-14T10:31:50;6.70;99.90
60473;DHT22;46318;52.716;6.444;2023-03-14T10:34:17;6.70;99.90
60473;DHT22;46318;52.716;6.444;2023-03-14T10:36:52;6.60;99.90
60473;DHT22;46318;52.716;6.444;2023-03-14T10:41:50;6.60;99.90
60473;DHT22;46318;52.716;6.444;2023-03-14T10:44:22;6.70;99.90
60473;DHT22;46318;52.716;6.444;2023-03-14T10:47:03;6.70;99.90
60473;DHT22;46318;52.716;6.444;2023-03-14T10:49:38;6.70;99.90
60473;DHT22;46318;52.716;6.444;2023-03-14T10:52:13;6.80;99.90
60473;DHT22;46318;52.716;6.444;2023-03-14T10:55:00;6.80;99.90
60473;DHT22;46318;52.716;6.444;2023-03-14T10:57:28;6.80;99.90
60473;DHT22;46318;52.716;6.444;2023-03-14T10:59:55;6.90;99.90
60473;DHT22;46318;52.716;6.444;2023-03-14T11:02:32;6.90;99.90
60473;DHT22;46318;52.716;6.444;2023-03-14T11:08:07;7.00;99.90
60473;DHT22;46318;52.716;6.444;2023-03-14T11:10:39;7.10;99.90
60473;DHT22;46318;52.716;6.444;2023-03-14T11:16:24;7.20;99.90
60473;DHT22;46318;52.716;6.444;2023-03-14T11:19:19;7.20;99.90
60473;DHT22;46318;52.716;6.444;2023-03-14T11:22:20;7.20;99.90
60473;DHT22;46318;52.716;6.444;2023-03-14T11:30:55;7.20;99.90
60473;DHT22;46318;52.716;6.444;2023-03-14T11:33:37;7.20;99.90
60473;DHT22;46318;52.716;6.444;2023-03-14T11:38:46;7.20;99.50
60473;DHT22;46318;52.716;6.444;2023-03-14T11:43:57;7.30;99.90
60473;DHT22;46318;52.716;6.444;2023-03-14T11:46:36;7.30;99.10
60473;DHT22;46318;52.716;6.444;2023-03-14T11:52:15;7.30;98.60
60473;DHT22;46318;52.716;6.444;2023-03-14T11:57:18;7.40;94.90
60473;DHT22;46318;52.716;6.444;2023-03-14T12:00:13;7.50;97.20
60473;DHT22;46318;52.716;6.444;2023-03-14T12:02:51;7.60;96.50
60473;DHT22;46318;52.716;6.444;2023-03-14T12:05:27;7.70;96.20
60473;DHT22;46318;52.716;6.444;2023-03-14T12:10:43;7.90;95.00
60473;DHT22;46318;52.716;6.444;2023-03-14T12:13:13;8.00;94.50
60473;DHT22;46318;52.716;6.444;2023-03-14T12:15:46;8.00;93.40
60473;DHT22;46318;52.716;6.444;2023-03-14T12:18:32;8.00;93.00
60473;DHT22;46318;52.716;6.444;2023-03-14T12:21:01;8.00;91.20
60473;DHT22;46318;52.716;6.444;2023-03-14T12:29:15;7.90;88.10
60473;DHT22;46318;52.716;6.444;2023-03-14T12:31:46;8.00;90.40
60473;DHT22;46318;52.716;6.444;2023-03-14T12:34:33;7.90;88.70
60473;DHT22;46318;52.716;6.444;2023-03-14T12:43:00;8.00;84.60
60473;DHT22;46318;52.716;6.444;2023-03-14T12:45:29;8.20;87.20
60473;DHT22;46318;52.716;6.444;2023-03-14T12:51:05;8.40;87.50
60473;DHT22;46318;52.716;6.444;2023-03-14T13:02:27;8.40;84.70
60473;DHT22;46318;52.716;6.444;2023-03-14T13:05:02;8.30;85.20
60473;DHT22;46318;52.716;6.444;2023-03-14T13:15:38;8.30;85.80
60473;DHT22;46318;52.716;6.444;2023-03-14T13:18:15;8.30;86.30
60473;DHT22;46318;52.716;6.444;2023-03-14T13:21:07;8.20;85.00
60473;DHT22;46318;52.716;6.444;2023-03-14T13:23:37;8.10;87.00
60473;DHT22;46318;52.716;6.444;2023-03-14T13:26:11;8.00;88.30
60473;DHT22;46318;52.716;6.444;2023-03-14T13:28:39;8.20;87.50
60473;DHT22;46318;52.716;6.444;2023-03-14T13:31:05;8.30;87.90
60473;DHT22;46318;52.716;6.444;2023-03-14T13:33:33;8.40;86.10
60473;DHT22;46318;52.716;6.444;2023-03-14T13:36:04;8.50;83.90
60473;DHT22;46318;52.716;6.444;2023-03-14T13:38:35;8.50;80.30
60473;DHT22;46318;52.716;6.444;2023-03-14T13:41:07;8.50;80.10
60473;DHT22;46318;52.716;6.444;2023-03-14T13:43:39;8.40;82.20
60473;DHT22;46318;52.716;6.444;2023-03-14T13:46:33;8.50;82.10
60473;DHT22;46318;52.716;6.444;2023-03-14T13:49:06;8.60;80.00
60473;DHT22;46318;52.716;6.444;2023-03-14T13:51:39;8.60;75.00
60473;DHT22;46318;52.716;6.444;2023-03-14T13:54:17;8.60;74.10
60473;DHT22;46318;52.716;6.444;2023-03-14T13:56:44;8.70;69.50
60473;DHT22;46318;52.716;6.444;2023-03-14T13:59:40;8.70;71.90
60473;DHT22;46318;52.716;6.444;2023-03-14T14:02:15;8.70;69.20
60473;DHT22;46318;52.716;6.444;2023-03-14T14:04:41;8.60;74.60
60473;DHT22;46318;52.716;6.444;2023-03-14T14:07:10;8.50;75.50
60473;DHT22;46318;52.716;6.444;2023-03-14T14:09:41;8.50;73.50
60473;DHT22;46318;52.716;6.444;2023-03-14T14:14:45;8.50;72.60
60473;DHT22;46318;52.716;6.444;2023-03-14T14:20:33;8.30;74.40
60473;DHT22;46318;52.716;6.444;2023-03-14T14:23:10;8.30;71.70
60473;DHT22;46318;52.716;6.444;2023-03-14T14:25:37;8.30;73.80
60473;DHT22;46318;52.716;6.444;2023-03-14T14:30:46;8.20;65.70
60473;DHT22;46318;52.716;6.444;2023-03-14T14:33:20;8.10;72.20
60473;DHT22;46318;52.716;6.444;2023-03-14T14:35:55;8.00;67.90
60473;DHT22;46318;52.716;6.444;2023-03-14T14:38:23;7.90;62.50
60473;DHT22;46318;52.716;6.444;2023-03-14T14:40:53;7.90;71.00
60473;DHT22;46318;52.716;6.444;2023-03-14T14:43:25;7.90;67.50
60473;DHT22;46318;52.716;6.444;2023-03-14T14:45:54;7.90;72.40
60473;DHT22;46318;52.716;6.444;2023-03-14T14:48:26;7.90;74.70
60473;DHT22;46318;52.716;6.444;2023-03-14T14:51:00;7.80;74.50
60473;DHT22;46318;52.716;6.444;2023-03-14T14:53:40;7.80;75.20
60473;DHT22;46318;52.716;6.444;2023-03-14T14:56:16;7.80;77.00
60473;DHT22;46318;52.716;6.444;2023-03-14T14:58:46;7.80;75.60
60473;DHT22;46318;52.716;6.444;2023-03-14T15:01:25;7.80;79.30
60473;DHT22;46318;52.716;6.444;2023-03-14T15:03:57;7.80;74.70
60473;DHT22;46318;52.716;6.444;2023-03-14T15:06:26;7.80;76.80
60473;DHT22;46318;52.716;6.444;2023-03-14T15:08:54;7.80;77.40
60473;DHT22;46318;52.716;6.444;2023-03-14T15:11:24;7.80;77.50
60473;DHT22;46318;52.716;6.444;2023-03-14T15:13:51;7.70;76.40
60473;DHT22;46318;52.716;6.444;2023-03-14T15:16:20;7.60;77.10
60473;DHT22;46318;52.716;6.444;2023-03-14T15:18:56;7.60;75.80
60473;DHT22;46318;52.716;6.444;2023-03-14T15:21:23;7.60;75.70
60473;DHT22;46318;52.716;6.444;2023-03-14T15:23:50;7.50;75.40
60473;DHT22;46318;52.716;6.444;2023-03-14T15:26:19;7.40;76.60
60473;DHT22;46318;52.716;6.444;2023-03-14T15:28:48;7.40;76.90
60473;DHT22;46318;52.716;6.444;2023-03-14T15:31:15;7.40;77.90
60473;DHT22;46318;52.716;6.444;2023-03-14T15:33:43;7.40;78.60
60473;DHT22;46318;52.716;6.444;2023-03-14T15:36:21;7.30;77.10
60473;DHT22;46318;52.716;6.444;2023-03-14T15:38:54;7.30;70.30
60473;DHT22;46318;52.716;6.444;2023-03-14T15:41:22;7.30;76.20
60473;DHT22;46318;52.716;6.444;2023-03-14T15:43:49;7.20;77.20
60473;DHT22;46318;52.716;6.444;2023-03-14T15:46:15;7.20;79.40
60473;DHT22;46318;52.716;6.444;2023-03-14T15:48:43;7.20;82.30
60473;DHT22;46318;52.716;6.444;2023-03-14T15:51:10;7.10;85.60
60473;DHT22;46318;52.716;6.444;2023-03-14T15:53:36;7.10;86.90
60473;DHT22;46318;52.716;6.444;2023-03-14T15:56:03;7.00;88.90
60473;DHT22;46318;52.716;6.444;2023-03-14T15:58:30;7.00;89.80
60473;DHT22;46318;52.716;6.444;2023-03-14T16:01:00;7.00;90.10
60473;DHT22;46318;52.716;6.444;2023-03-14T16:03:27;7.00;90.40
60473;DHT22;46318;52.716;6.444;2023-03-14T16:05:54;7.00;90.60
60473;DHT22;46318;52.716;6.444;2023-03-14T16:08:21;6.90;90.80
60473;DHT22;46318;52.716;6.444;2023-03-14T16:10:48;6.90;90.90
60473;DHT22;46318;52.716;6.444;2023-03-14T16:13:15;6.90;90.80
60473;DHT22;46318;52.716;6.444;2023-03-14T16:15:41;6.80;90.90
60473;DHT22;46318;52.716;6.444;2023-03-14T16:18:06;6.80;91.30
60473;DHT22;46318;52.716;6.444;2023-03-14T16:20:32;6.80;91.40
60473;DHT22;46318;52.716;6.444;2023-03-14T16:22:58;6.80;91.40
60473;DHT22;46318;52.716;6.444;2023-03-14T16:25:24;6.80;91.40
60473;DHT22;46318;52.716;6.444;2023-03-14T16:27:50;6.70;91.30
60473;DHT22;46318;52.716;6.444;2023-03-14T16:30:16;6.70;91.40
60473;DHT22;46318;52.716;6.444;2023-03-14T16:32:42;6.70;91.30
60473;DHT22;46318;52.716;6.444;2023-03-14T16:35:10;6.70;91.30
60473;DHT22;46318;52.716;6.444;2023-03-14T16:37:36;6.70;91.50
60473;DHT22;46318;52.716;6.444;2023-03-14T16:40:02;6.70;91.40
60473;DHT22;46318;52.716;6.444;2023-03-14T16:42:30;6.60;91.30
60473;DHT22;46318;52.716;6.444;2023-03-14T16:44:56;6.60;90.50
60473;DHT22;46318;52.716;6.444;2023-03-14T16:47:21;6.50;90.20
60473;DHT22;46318;52.716;6.444;2023-03-14T16:49:47;6.50;90.20
60473;DHT22;46318;52.716;6.444;2023-03-14T16:52:13;6.50;91.30
60473;DHT22;46318;52.716;6.444;2023-03-14T16:54:39;6.40;92.20
60473;DHT22;46318;52.716;6.444;2023-03-14T16:57:05;6.30;92.80
60473;DHT22;46318;52.716;6.444;2023-03-14T16:59:31;6.30;93.20
60473;DHT22;46318;52.716;6.444;2023-03-14T17:01:56;6.30;93.30
60473;DHT22;46318;52.716;6.444;2023-03-14T17:04:23;6.20;93.70
60473;DHT22;46318;52.716;6.444;2023-03-14T17:06:48;6.20;93.80
60473;DHT22;46318;52.716;6.444;2023-03-14T17:09:14;6.20;93.80
60473;DHT22;46318;52.716;6.444;2023-03-14T17:11:40;6.20;93.70